Seaexpressii — HO4619 — position and weather

sailwx.info

Track history (hours):
 
Tides and Currents Weather Stations Pressure Air Temp Water Temp Dewpoint Dewpoint Depression Visibility Wind Speed Wind Dir Waves Ship Positions

Seaexpressii

Last reported at 2016-Aug-24 03:16 UTC. Time now 2016-Aug-24 23:14 UTC.
Position N 25°59' W 079°44'.

Length 37 m; draft 2.2 m.

Type: Ship. MMSI: 356449000.

Date/timePositionNaut miles runAvg speedWind from/ knotsBaromVisibWave heightAir tempDewpointWater temp
2016-Aug-24 03:16N 25°59' W 079°44'5 7.6
2016-Aug-24 02:33N 26°00' W 079°49'7 7.5
2016-Aug-24 01:33N 26°03' W 079°57'9 8.9
2016-Aug-24 00:33N 26°06' W 080°07'2 2.2
2016-Aug-23 23:33N 26°04' W 080°08'0 0.0
2016-Aug-23 22:33N 26°04' W 080°08'0 0.0
2016-Aug-23 21:33N 26°04' W 080°08'0 0.0
2016-Aug-23 20:33N 26°04' W 080°08'6 6.1
2016-Aug-23 19:33N 26°04' W 080°01'1111.2
2016-Aug-23 18:33N 25°60' W 079°50'1111.0
2016-Aug-23 17:34N 25°57' W 079°38'  
2016-Aug-21 05:32N 25°56' W 079°30'9 8.7
2016-Aug-21 04:31N 25°59' W 079°39'8 8.7
2016-Aug-21 03:34N 26°01' W 079°48'8 8.4
2016-Aug-21 02:33N 26°03' W 079°57'8 8.4
2016-Aug-21 01:33N 26°06' W 080°06'2 2.3
2016-Aug-21 00:33N 26°04' W 080°08'0 0.0
2016-Aug-20 23:33N 26°04' W 080°08'0 0.0
2016-Aug-20 22:33N 26°04' W 080°08'0 0.0
2016-Aug-20 21:33N 26°04' W 080°08'0 0.0
2016-Aug-20 20:33N 26°04' W 080°08'0 0.0
2016-Aug-20 19:34N 26°04' W 080°08'0 0.0
2016-Aug-20 18:33N 26°04' W 080°08'0 0.0
2016-Aug-20 17:34N 26°04' W 080°08'0 0.0
2016-Aug-20 16:33N 26°04' W 080°08'0 0.0
2016-Aug-20 15:34N 26°04' W 080°08'0 0.0
2016-Aug-20 14:33N 26°04' W 080°08'0 0.0
2016-Aug-20 13:34N 26°04' W 080°08'1 1.1
2016-Aug-20 12:33N 26°04' W 080°07'8 8.2
2016-Aug-20 11:33N 26°04' W 079°58'1110.7
2016-Aug-20 10:33N 25°60' W 079°47'18 0.4
2016-Aug-18 18:33N 26°18' W 079°51'1212.3
2016-Aug-18 17:33N 26°10' W 080°01'8 8.4
2016-Aug-18 16:33N 26°04' W 080°08'0 0.1
2016-Aug-18 15:33N 26°04' W 080°08'0 0.0
2016-Aug-18 14:33N 26°04' W 080°08'0 0.0
2016-Aug-18 13:33N 26°04' W 080°08'0 0.0
2016-Aug-18 12:33N 26°04' W 080°08'1 0.8
2016-Aug-18 11:34N 26°04' W 080°07'7 7.4
2016-Aug-18 10:34N 26°07' W 079°60'8 8.1
2016-Aug-18 09:33N 26°10' W 079°51'8 8.1
2016-Aug-18 08:33N 26°12' W 079°43'9 8.4
2016-Aug-18 07:32N 26°15' W 079°33'5 0.3
2016-Aug-17 14:32N 26°14' W 079°39'1010.3
2016-Aug-17 13:32N 26°10' W 079°49'1010.4
2016-Aug-17 12:33N 26°07' W 079°60'8 7.8
2016-Aug-17 11:33N 26°04' W 080°08'0 0.1
2016-Aug-17 10:33N 26°04' W 080°08'0 0.0
2016-Aug-17 09:34N 26°04' W 080°08'0 0.0
2016-Aug-17 08:34N 26°04' W 080°08'0 0.0
2016-Aug-17 07:33N 26°04' W 080°08'0 0.0
2016-Aug-17 06:34N 26°04' W 080°08'0 0.0
2016-Aug-17 05:33N 26°04' W 080°08'0 0.0
2016-Aug-17 04:34N 26°04' W 080°08'2 2.0
2016-Aug-17 03:33N 26°05' W 080°07'10 9.6
2016-Aug-17 02:34N 26°05' W 079°56'9 9.3
2016-Aug-17 01:33N 26°05' W 079°46'9 9.4
2016-Aug-17 00:33N 26°05' W 079°35'10 0.7
2016-Aug-16 10:13N 26°15' W 079°36'6 9.9
2016-Aug-16 09:33N 26°13' W 079°43'10 9.9
2016-Aug-16 08:33N 26°09' W 079°54'10 9.7
2016-Aug-16 07:33N 26°06' W 080°04'4 4.3
2016-Aug-16 06:33N 26°04' W 080°08'0 0.0
2016-Aug-16 04:33N 26°04' W 080°08'0 0.0
2016-Aug-16 03:34N 26°04' W 080°08'0 0.0
2016-Aug-16 02:34N 26°04' W 080°08'0 0.0
2016-Aug-16 01:34N 26°04' W 080°08'0 0.0
2016-Aug-16 00:33N 26°04' W 080°08'0 0.0
2016-Aug-15 23:34N 26°04' W 080°08'0 0.0
2016-Aug-15 22:33N 26°04' W 080°08'0 0.0
2016-Aug-15 21:33N 26°04' W 080°08'0 0.0
2016-Aug-15 20:34N 26°04' W 080°08'0 0.0
2016-Aug-15 19:33N 26°04' W 080°08'0 0.0
2016-Aug-15 18:33N 26°04' W 080°08'0 0.0
2016-Aug-15 17:33N 26°04' W 080°08'0 0.0
2016-Aug-15 16:33N 26°04' W 080°08'0 0.0
2016-Aug-15 15:33N 26°04' W 080°08'0 0.0
2016-Aug-15 14:33N 26°04' W 080°08'0 0.0
2016-Aug-15 13:33N 26°04' W 080°08'0 0.0
2016-Aug-15 12:34N 26°04' W 080°08'0 0.0
2016-Aug-15 11:34N 26°04' W 080°08'0 0.0
2016-Aug-15 10:34N 26°04' W 080°08'0 0.0
2016-Aug-15 09:33N 26°04' W 080°08'0 0.0
2016-Aug-15 08:33N 26°04' W 080°08'0 0.0
2016-Aug-15 07:15N 26°04' W 080°08'0 0.0
2016-Aug-15 06:33N 26°04' W 080°08'0 0.0
2016-Aug-15 04:33N 26°04' W 080°08'0 0.0
2016-Aug-15 03:33N 26°04' W 080°08'0 0.0
2016-Aug-15 02:33N 26°04' W 080°08'0 0.0
2016-Aug-15 01:33N 26°04' W 080°08'0 0.0
2016-Aug-15 00:33N 26°04' W 080°08'0 0.0
2016-Aug-14 23:33N 26°04' W 080°08'0 0.0
2016-Aug-14 22:34N 26°04' W 080°08'0 0.0
2016-Aug-14 21:33N 26°04' W 080°08'0 0.0
2016-Aug-14 20:34N 26°04' W 080°08'0 0.0
2016-Aug-14 19:33N 26°04' W 080°08'0 0.0
2016-Aug-14 18:34N 26°04' W 080°08'0 0.0
2016-Aug-14 17:34N 26°04' W 080°08'0 0.0
2016-Aug-14 16:33N 26°04' W 080°08'0 0.0
2016-Aug-14 15:33N 26°04' W 080°08'0 0.0
2016-Aug-14 14:33N 26°04' W 080°08'0 0.0
2016-Aug-14 13:33N 26°04' W 080°08'0 0.0
2016-Aug-14 12:33N 26°04' W 080°08'0 0.0
2016-Aug-14 11:33N 26°04' W 080°08'0 0.0
2016-Aug-14 10:33N 26°04' W 080°08'0 0.0
2016-Aug-14 09:34N 26°04' W 080°08'0 0.0
2016-Aug-14 08:33N 26°04' W 080°08'0 0.0
2016-Aug-14 07:33N 26°04' W 080°08'0 0.0
2016-Aug-14 06:34N 26°04' W 080°08'0 0.0
2016-Aug-14 04:33N 26°04' W 080°08'0 0.0
2016-Aug-14 03:34N 26°04' W 080°08'  
Track history (hours):
 
Tides and Currents Weather Stations Pressure Air Temp Water Temp Dewpoint Dewpoint Depression Visibility Wind Speed Wind Dir Waves Ship Positions

Seaexpressii

Last reported at 2016-Aug-24 03:16 UTC. Time now 2016-Aug-24 23:14 UTC.
Position N 25°59' W 079°44'.

Length 37 m; draft 2.2 m.

Type: Ship. MMSI: 356449000.

Date/timePositionNaut miles runAvg speedWind from/ knotsBaromVisibWave heightAir tempDewpointWater temp
2016-Aug-24 03:16N 25°59' W 079°44'5 7.6
2016-Aug-24 02:33N 26°00' W 079°49'7 7.5
2016-Aug-24 01:33N 26°03' W 079°57'9 8.9
2016-Aug-24 00:33N 26°06' W 080°07'2 2.2
2016-Aug-23 23:33N 26°04' W 080°08'0 0.0
2016-Aug-23 22:33N 26°04' W 080°08'0 0.0
2016-Aug-23 21:33N 26°04' W 080°08'0 0.0
2016-Aug-23 20:33N 26°04' W 080°08'6 6.1
2016-Aug-23 19:33N 26°04' W 080°01'1111.2
2016-Aug-23 18:33N 25°60' W 079°50'1111.0
2016-Aug-23 17:34N 25°57' W 079°38'  
2016-Aug-21 05:32N 25°56' W 079°30'9 8.7
2016-Aug-21 04:31N 25°59' W 079°39'8 8.7
2016-Aug-21 03:34N 26°01' W 079°48'8 8.4
2016-Aug-21 02:33N 26°03' W 079°57'8 8.4
2016-Aug-21 01:33N 26°06' W 080°06'2 2.3
2016-Aug-21 00:33N 26°04' W 080°08'0 0.0
2016-Aug-20 23:33N 26°04' W 080°08'0 0.0
2016-Aug-20 22:33N 26°04' W 080°08'0 0.0
2016-Aug-20 21:33N 26°04' W 080°08'0 0.0
2016-Aug-20 20:33N 26°04' W 080°08'0 0.0
2016-Aug-20 19:34N 26°04' W 080°08'0 0.0
2016-Aug-20 18:33N 26°04' W 080°08'0 0.0
2016-Aug-20 17:34N 26°04' W 080°08'0 0.0
2016-Aug-20 16:33N 26°04' W 080°08'0 0.0
2016-Aug-20 15:34N 26°04' W 080°08'0 0.0
2016-Aug-20 14:33N 26°04' W 080°08'0 0.0
2016-Aug-20 13:34N 26°04' W 080°08'1 1.1
2016-Aug-20 12:33N 26°04' W 080°07'8 8.2
2016-Aug-20 11:33N 26°04' W 079°58'1110.7
2016-Aug-20 10:33N 25°60' W 079°47'18 0.4
2016-Aug-18 18:33N 26°18' W 079°51'1212.3
2016-Aug-18 17:33N 26°10' W 080°01'8 8.4
2016-Aug-18 16:33N 26°04' W 080°08'0 0.1
2016-Aug-18 15:33N 26°04' W 080°08'0 0.0
2016-Aug-18 14:33N 26°04' W 080°08'0 0.0
2016-Aug-18 13:33N 26°04' W 080°08'0 0.0
2016-Aug-18 12:33N 26°04' W 080°08'1 0.8
2016-Aug-18 11:34N 26°04' W 080°07'7 7.4
2016-Aug-18 10:34N 26°07' W 079°60'8 8.1
2016-Aug-18 09:33N 26°10' W 079°51'8 8.1
2016-Aug-18 08:33N 26°12' W 079°43'9 8.4
2016-Aug-18 07:32N 26°15' W 079°33'5 0.3
2016-Aug-17 14:32N 26°14' W 079°39'1010.3
2016-Aug-17 13:32N 26°10' W 079°49'1010.4
2016-Aug-17 12:33N 26°07' W 079°60'8 7.8
2016-Aug-17 11:33N 26°04' W 080°08'0 0.1
2016-Aug-17 10:33N 26°04' W 080°08'0 0.0
2016-Aug-17 09:34N 26°04' W 080°08'0 0.0
2016-Aug-17 08:34N 26°04' W 080°08'0 0.0
2016-Aug-17 07:33N 26°04' W 080°08'0 0.0
2016-Aug-17 06:34N 26°04' W 080°08'0 0.0
2016-Aug-17 05:33N 26°04' W 080°08'0 0.0
2016-Aug-17 04:34N 26°04' W 080°08'2 2.0
2016-Aug-17 03:33N 26°05' W 080°07'10 9.6
2016-Aug-17 02:34N 26°05' W 079°56'9 9.3
2016-Aug-17 01:33N 26°05' W 079°46'9 9.4
2016-Aug-17 00:33N 26°05' W 079°35'10 0.7
2016-Aug-16 10:13N 26°15' W 079°36'6 9.9
2016-Aug-16 09:33N 26°13' W 079°43'10 9.9
2016-Aug-16 08:33N 26°09' W 079°54'10 9.7
2016-Aug-16 07:33N 26°06' W 080°04'4 4.3
2016-Aug-16 06:33N 26°04' W 080°08'0 0.0
2016-Aug-16 04:33N 26°04' W 080°08'0 0.0
2016-Aug-16 03:34N 26°04' W 080°08'0 0.0
2016-Aug-16 02:34N 26°04' W 080°08'0 0.0
2016-Aug-16 01:34N 26°04' W 080°08'0 0.0
2016-Aug-16 00:33N 26°04' W 080°08'0 0.0
2016-Aug-15 23:34N 26°04' W 080°08'0 0.0
2016-Aug-15 22:33N 26°04' W 080°08'0 0.0
2016-Aug-15 21:33N 26°04' W 080°08'0 0.0
2016-Aug-15 20:34N 26°04' W 080°08'0 0.0
2016-Aug-15 19:33N 26°04' W 080°08'0 0.0
2016-Aug-15 18:33N 26°04' W 080°08'0 0.0
2016-Aug-15 17:33N 26°04' W 080°08'0 0.0
2016-Aug-15 16:33N 26°04' W 080°08'0 0.0
2016-Aug-15 15:33N 26°04' W 080°08'0 0.0
2016-Aug-15 14:33N 26°04' W 080°08'0 0.0
2016-Aug-15 13:33N 26°04' W 080°08'0 0.0
2016-Aug-15 12:34N 26°04' W 080°08'0 0.0
2016-Aug-15 11:34N 26°04' W 080°08'0 0.0
2016-Aug-15 10:34N 26°04' W 080°08'0 0.0
2016-Aug-15 09:33N 26°04' W 080°08'0 0.0
2016-Aug-15 08:33N 26°04' W 080°08'0 0.0
2016-Aug-15 07:15N 26°04' W 080°08'0 0.0
2016-Aug-15 06:33N 26°04' W 080°08'0 0.0
2016-Aug-15 04:33N 26°04' W 080°08'0 0.0
2016-Aug-15 03:33N 26°04' W 080°08'0 0.0
2016-Aug-15 02:33N 26°04' W 080°08'0 0.0
2016-Aug-15 01:33N 26°04' W 080°08'0 0.0
2016-Aug-15 00:33N 26°04' W 080°08'0 0.0
2016-Aug-14 23:33N 26°04' W 080°08'0 0.0
2016-Aug-14 22:34N 26°04' W 080°08'0 0.0
2016-Aug-14 21:33N 26°04' W 080°08'0 0.0
2016-Aug-14 20:34N 26°04' W 080°08'0 0.0
2016-Aug-14 19:33N 26°04' W 080°08'0 0.0
2016-Aug-14 18:34N 26°04' W 080°08'0 0.0
2016-Aug-14 17:34N 26°04' W 080°08'0 0.0
2016-Aug-14 16:33N 26°04' W 080°08'0 0.0
2016-Aug-14 15:33N 26°04' W 080°08'0 0.0
2016-Aug-14 14:33N 26°04' W 080°08'0 0.0
2016-Aug-14 13:33N 26°04' W 080°08'0 0.0
2016-Aug-14 12:33N 26°04' W 080°08'0 0.0
2016-Aug-14 11:33N 26°04' W 080°08'0 0.0
2016-Aug-14 10:33N 26°04' W 080°08'0 0.0
2016-Aug-14 09:34N 26°04' W 080°08'0 0.0
2016-Aug-14 08:33N 26°04' W 080°08'0 0.0
2016-Aug-14 07:33N 26°04' W 080°08'0 0.0
2016-Aug-14 06:34N 26°04' W 080°08'0 0.0
2016-Aug-14 04:33N 26°04' W 080°08'0 0.0
2016-Aug-14 03:34N 26°04' W 080°08'  

Dump ship's entire track history